Time;durP1;ratioP1;P1;durP2;ratioP2;P2;SDS_P1;SDS_P2;PMS_P1;PMS_P2;Temp;Humidity;BMP_temperature;BMP_pressure;BME280_temperature;BME280_humidity;BME280_pressure;Samples;Min_cycle;Max_cycle;Signal;HPM_P1;HPM_P2
2023/08/16 00:01:49;;;;;;;6.20;3.53;;;18.00;1.00;;;;;;5032423;28;20037;-81
2023/08/16 00:04:15;;;;;;;7.93;4.32;;;18.10;1.00;;;;;;5027464;28;20033;-80
2023/08/16 00:06:44;;;;;;;5.03;3.40;;;18.20;1.00;;;;;;5038578;28;20038;-81
2023/08/16 00:09:11;;;;;;;3.38;2.30;;;18.30;1.00;;;;;;5028781;28;20036;-81
2023/08/16 00:11:37;;;;;;;5.07;2.95;;;18.40;1.00;;;;;;5023419;28;20037;-81
2023/08/16 00:14:03;;;;;;;3.47;2.58;;;18.40;1.00;;;;;;5025950;28;20030;-81
2023/08/16 00:16:29;;;;;;;5.45;2.90;;;18.40;1.00;;;;;;5035283;28;20041;-81
2023/08/16 00:18:55;;;;;;;7.18;2.85;;;18.40;1.00;;;;;;5032704;28;20613;-81
2023/08/16 00:21:21;;;;;;;3.72;2.63;;;18.30;1.00;;;;;;5034510;28;20036;-81
2023/08/16 00:23:47;;;;;;;4.97;2.75;;;18.40;99.90;;;;;;5035807;28;20032;-81
2023/08/16 00:26:14;;;;;;;7.07;3.08;;;18.40;99.90;;;;;;5034589;28;20453;-80
2023/08/16 00:28:40;;;;;;;7.90;4.07;;;18.20;99.90;;;;;;5035174;28;20033;-81
2023/08/16 00:31:06;;;;;;;6.50;3.33;;;18.10;99.90;;;;;;5027244;28;20045;-81
2023/08/16 00:33:33;;;;;;;5.90;3.40;;;18.10;99.90;;;;;;5033177;28;20057;-76
2023/08/16 00:35:59;;;;;;;5.10;2.72;;;18.00;99.90;;;;;;5029909;28;20041;-81
2023/08/16 00:38:25;;;;;;;4.63;2.88;;;17.90;1.00;;;;;;5029515;28;20037;-82
2023/08/16 00:40:51;;;;;;;6.10;3.60;;;17.80;1.00;;;;;;5040187;28;20038;-80
2023/08/16 00:43:18;;;;;;;6.90;3.40;;;17.70;1.00;;;;;;5035897;28;20034;-80
2023/08/16 00:45:47;;;;;;;6.22;3.05;;;17.80;1.00;;;;;;5031657;28;20458;-81
2023/08/16 00:48:13;;;;;;;6.25;3.38;;;17.70;1.00;;;;;;5032648;28;20052;-81
2023/08/16 00:50:40;;;;;;;5.80;3.90;;;17.60;1.00;;;;;;5034012;28;20044;-81
2023/08/16 00:53:08;;;;;;;5.63;2.70;;;17.50;1.00;;;;;;5027349;28;20398;-81
2023/08/16 00:55:34;;;;;;;4.88;3.50;;;17.40;1.00;;;;;;5023073;28;20049;-76
2023/08/16 00:58:01;;;;;;;7.63;3.80;;;17.40;1.00;;;;;;5029946;28;20052;-81
2023/08/16 01:00:28;;;;;;;6.28;2.92;;;17.40;1.00;;;;;;5038341;28;20045;-79
2023/08/16 01:02:54;;;;;;;4.80;3.30;;;17.40;1.00;;;;;;5032934;28;20025;-80
2023/08/16 01:05:21;;;;;;;6.63;3.47;;;17.40;1.00;;;;;;5035906;28;20025;-81
2023/08/16 01:07:47;;;;;;;4.97;3.92;;;17.40;1.00;;;;;;5033301;28;20041;-80
2023/08/16 01:10:15;;;;;;;8.90;3.65;;;17.40;1.00;;;;;;5036801;28;20034;-81
2023/08/16 01:12:49;;;;;;;6.03;3.28;;;17.40;1.00;;;;;;5014118;28;20060;-81
2023/08/16 01:15:24;;;;;;;5.15;3.33;;;17.40;1.00;;;;;;5033050;28;20367;-80
2023/08/16 01:17:53;;;;;;;8.82;3.67;;;17.40;1.00;;;;;;5028000;28;20478;-81
2023/08/16 01:20:21;;;;;;;5.00;3.25;;;17.30;1.00;;;;;;5026845;28;20036;-81
2023/08/16 01:22:58;;;;;;;5.68;3.40;;;17.20;1.00;;;;;;5031923;28;20044;-80
2023/08/16 01:25:31;;;;;;;9.80;4.40;;;17.20;1.00;;;;;;5036793;28;20029;-80
2023/08/16 01:27:59;;;;;;;6.18;4.28;;;17.30;1.00;;;;;;5034902;28;20041;-80
2023/08/16 01:30:25;;;;;;;6.28;4.25;;;17.30;1.00;;;;;;5024041;28;20033;-81
2023/08/16 01:32:51;;;;;;;7.38;4.13;;;17.30;1.00;;;;;;5032674;28;20056;-80
2023/08/16 01:35:18;;;;;;;8.05;4.70;;;17.30;1.00;;;;;;5029324;28;20025;-79
2023/08/16 01:37:45;;;;;;;7.20;4.18;;;17.40;1.00;;;;;;5023794;28;20029;-81
2023/08/16 01:40:12;;;;;;;6.63;4.32;;;17.30;1.00;;;;;;5025757;28;20048;-81
2023/08/16 01:42:49;;;;;;;6.85;3.92;;;17.30;1.00;;;;;;5027493;28;20045;-76
2023/08/16 01:45:18;;;;;;;6.75;4.97;;;17.30;1.00;;;;;;5040799;28;20490;-81
2023/08/16 01:47:47;;;;;;;6.68;5.07;;;17.20;1.00;;;;;;5033754;28;20044;-81
2023/08/16 01:50:14;;;;;;;5.15;4.43;;;17.20;1.00;;;;;;5033393;28;20039;-81
2023/08/16 01:52:40;;;;;;;10.85;5.15;;;17.20;1.00;;;;;;5030333;28;20049;-76
2023/08/16 01:55:07;;;;;;;7.13;4.78;;;17.20;12.40;;;;;;5018623;28;20360;-78
2023/08/16 01:57:33;;;;;;;6.75;5.32;;;17.10;24.60;;;;;;5033124;28;20029;-80
2023/08/16 01:59:59;;;;;;;10.30;5.60;;;17.10;44.90;;;;;;5025796;28;20069;-81
2023/08/16 02:02:26;;;;;;;8.07;5.35;;;17.10;63.00;;;;;;5021999;28;20033;-81
2023/08/16 02:04:52;;;;;;;7.47;5.97;;;17.10;88.40;;;;;;5020850;28;20038;-80
2023/08/16 02:07:18;;;;;;;8.07;5.85;;;17.10;96.80;;;;;;5039476;28;20033;-80
2023/08/16 02:09:44;;;;;;;10.35;6.43;;;17.30;99.90;;;;;;5034545;28;20036;-78
2023/08/16 02:12:12;;;;;;;13.85;7.82;;;17.30;99.90;;;;;;5028857;28;20110;-81
2023/08/16 02:14:39;;;;;;;10.23;7.18;;;17.30;99.90;;;;;;5031351;28;20214;-76
2023/08/16 02:17:05;;;;;;;8.90;5.72;;;17.30;99.90;;;;;;5032627;28;20056;-81
2023/08/16 02:19:33;;;;;;;8.68;5.85;;;17.30;99.90;;;;;;5033670;28;20038;-79
2023/08/16 02:22:01;;;;;;;8.20;6.25;;;17.30;99.90;;;;;;5029841;28;20382;-81
2023/08/16 02:24:27;;;;;;;10.93;5.35;;;17.30;99.90;;;;;;5029011;28;20474;-81
2023/08/16 02:26:53;;;;;;;7.45;5.53;;;17.30;99.90;;;;;;5026920;28;20389;-80
2023/08/16 02:29:19;;;;;;;6.93;4.70;;;17.40;99.90;;;;;;5032908;28;20485;-80
2023/08/16 02:31:45;;;;;;;6.57;5.22;;;17.40;99.70;;;;;;5040951;28;20036;-80
2023/08/16 02:34:11;;;;;;;9.02;5.18;;;17.40;94.60;;;;;;5030106;28;20037;-81
2023/08/16 02:36:38;;;;;;;8.85;5.93;;;17.40;91.50;;;;;;5027069;28;20041;-76
2023/08/16 02:39:08;;;;;;;5.47;4.88;;;17.50;83.80;;;;;;5024870;28;20025;-80
2023/08/16 02:41:35;;;;;;;6.05;4.63;;;17.50;64.60;;;;;;5033885;28;20053;-81
2023/08/16 02:44:01;;;;;;;6.80;5.50;;;17.50;52.10;;;;;;5023217;28;20040;-80
2023/08/16 02:46:27;;;;;;;9.45;5.75;;;17.60;48.00;;;;;;5021400;28;20382;-81
2023/08/16 02:48:53;;;;;;;7.30;5.47;;;17.50;41.30;;;;;;5033392;28;20033;-81
2023/08/16 02:51:21;;;;;;;9.77;5.22;;;17.50;36.10;;;;;;5039673;28;20045;-80
2023/08/16 02:53:47;;;;;;;5.78;3.70;;;17.40;33.40;;;;;;5033894;28;20081;-80
2023/08/16 02:56:13;;;;;;;5.68;3.95;;;17.50;16.40;;;;;;5029755;28;20385;-81
2023/08/16 02:58:39;;;;;;;5.28;3.88;;;17.30;1.00;;;;;;5036418;28;20418;-77
2023/08/16 03:01:05;;;;;;;8.25;4.93;;;17.20;1.00;;;;;;5030904;28;20017;-81
2023/08/16 03:03:32;;;;;;;9.75;5.28;;;17.20;1.00;;;;;;5019957;28;20037;-79
2023/08/16 03:05:58;;;;;;;9.18;5.13;;;17.20;12.30;;;;;;5029148;28;20033;-80
2023/08/16 03:08:24;;;;;;;14.02;6.28;;;17.20;24.10;;;;;;5028179;28;20026;-79
2023/08/16 03:10:50;;;;;;;6.10;5.32;;;17.30;44.40;;;;;;5029720;28;20052;-81
2023/08/16 03:13:16;;;;;;;7.68;5.60;;;17.30;63.60;;;;;;5033837;28;20041;-80
2023/08/16 03:15:42;;;;;;;7.93;5.05;;;17.40;76.40;;;;;;5038065;28;20393;-76
2023/08/16 03:18:10;;;;;;;7.80;5.13;;;17.40;78.90;;;;;;5026046;28;20049;-80
2023/08/16 03:20:37;;;;;;;8.40;5.50;;;17.40;72.00;;;;;;5027971;28;20056;-81
2023/08/16 03:23:03;;;;;;;13.18;6.70;;;17.50;67.30;;;;;;5031875;28;20034;-81
2023/08/16 03:25:30;;;;;;;9.77;6.30;;;17.50;70.40;;;;;;5019863;28;20050;-81
2023/08/16 03:27:56;;;;;;;8.10;6.03;;;17.50;73.10;;;;;;5014533;28;20625;-81
2023/08/16 03:30:22;;;;;;;10.85;5.05;;;17.60;73.60;;;;;;5017356;28;20040;-81
2023/08/16 03:32:48;;;;;;;7.45;5.25;;;17.60;66.70;;;;;;5035554;28;20037;-81
2023/08/16 03:35:14;;;;;;;7.80;5.63;;;17.70;65.60;;;;;;5038857;28;20050;-81
2023/08/16 03:37:41;;;;;;;7.28;4.53;;;17.70;40.10;;;;;;5031993;28;20034;-76
2023/08/16 03:40:09;;;;;;;7.45;4.95;;;17.70;22.50;;;;;;5032430;28;20368;-79
2023/08/16 03:42:37;;;;;;;8.60;5.38;;;17.70;18.50;;;;;;5039568;28;20041;-80
2023/08/16 03:45:04;;;;;;;8.75;6.15;;;17.70;11.00;;;;;;5024401;28;20113;-80
2023/08/16 03:47:32;;;;;;;8.60;5.13;;;17.70;7.90;;;;;;5017337;28;20030;-81
2023/08/16 03:49:59;;;;;;;9.05;5.90;;;17.80;11.80;;;;;;5030818;28;20041;-81
2023/08/16 03:52:28;;;;;;;7.70;5.47;;;17.70;13.50;;;;;;5024371;28;20056;-80
2023/08/16 03:54:54;;;;;;;20.40;6.63;;;17.80;13.90;;;;;;5024922;28;20030;-81
2023/08/16 03:57:26;;;;;;;12.15;7.65;;;17.80;20.50;;;;;;5036954;28;20021;-80
2023/08/16 03:59:52;;;;;;;8.40;5.68;;;17.80;38.90;;;;;;5036132;28;20057;-80
2023/08/16 04:02:20;;;;;;;11.35;7.20;;;17.70;55.30;;;;;;5033671;28;20482;-80
2023/08/16 04:04:52;;;;;;;8.07;6.35;;;17.70;65.50;;;;;;5023693;28;20041;-76
2023/08/16 04:07:19;;;;;;;13.60;7.55;;;17.70;77.50;;;;;;5020000;28;20471;-80
2023/08/16 04:09:45;;;;;;;11.73;6.50;;;17.70;89.70;;;;;;5028501;28;20034;-77
2023/08/16 04:12:11;;;;;;;9.48;6.30;;;17.70;94.10;;;;;;5020454;28;20034;-81
2023/08/16 04:14:37;;;;;;;10.18;7.07;;;17.80;98.90;;;;;;5023416;28;20049;-81
2023/08/16 04:17:03;;;;;;;9.38;7.32;;;17.80;99.90;;;;;;5023396;28;20037;-79
2023/08/16 04:19:32;;;;;;;11.68;9.05;;;17.90;99.90;;;;;;5032967;28;20498;-79
2023/08/16 04:21:58;;;;;;;11.55;8.13;;;17.90;95.90;;;;;;5030384;28;20037;-80
2023/08/16 04:24:24;;;;;;;10.13;7.80;;;17.90;94.50;;;;;;5034470;28;20033;-80
2023/08/16 04:26:51;;;;;;;9.65;6.45;;;17.90;84.70;;;;;;5026333;28;20501;-79
2023/08/16 04:29:17;;;;;;;8.75;5.60;;;17.90;69.50;;;;;;5023037;28;20056;-80
2023/08/16 04:31:43;;;;;;;8.18;6.07;;;18.00;60.60;;;;;;5031685;28;20497;-80
2023/08/16 04:34:09;;;;;;;10.43;6.45;;;18.00;33.30;;;;;;5031101;28;20045;-80
2023/08/16 04:36:35;;;;;;;15.25;7.15;;;18.10;19.90;;;;;;5024900;28;20045;-80
2023/08/16 04:39:01;;;;;;;7.32;5.75;;;18.10;4.90;;;;;;5024609;28;20466;-80
2023/08/16 04:41:30;;;;;;;10.35;7.22;;;18.00;1.00;;;;;;5039137;28;20041;-80
2023/08/16 04:43:57;;;;;;;9.48;7.60;;;18.00;3.70;;;;;;5032900;28;20041;-81
2023/08/16 04:46:23;;;;;;;10.23;7.97;;;17.90;13.00;;;;;;5033136;28;20045;-80
2023/08/16 04:48:49;;;;;;;10.38;7.88;;;17.90;25.50;;;;;;5033666;28;20041;-80
2023/08/16 04:51:17;;;;;;;11.93;9.57;;;18.00;30.10;;;;;;5031430;28;20071;-81
2023/08/16 04:53:45;;;;;;;12.18;8.43;;;18.00;28.30;;;;;;5031241;28;20056;-78
2023/08/16 04:56:13;;;;;;;12.68;8.85;;;18.00;27.20;;;;;;5027844;28;20045;-79
2023/08/16 04:58:40;;;;;;;27.13;10.70;;;18.00;28.90;;;;;;5035647;28;20053;-82
2023/08/16 05:01:07;;;;;;;17.35;10.75;;;18.00;38.50;;;;;;5031917;28;20550;-79
2023/08/16 05:03:34;;;;;;;24.40;13.45;;;18.00;57.20;;;;;;5031527;28;20045;-84
2023/08/16 05:06:03;;;;;;;21.67;13.38;;;18.10;83.80;;;;;;5033495;28;20026;-83
2023/08/16 05:08:30;;;;;;;20.13;12.70;;;18.10;98.10;;;;;;5022529;28;20048;-82
2023/08/16 05:10:57;;;;;;;20.45;13.25;;;18.10;99.90;;;;;;5027332;28;20486;-82
2023/08/16 05:13:24;;;;;;;19.00;12.63;;;18.10;99.90;;;;;;5027274;28;20029;-82
2023/08/16 05:15:50;;;;;;;17.95;11.27;;;18.30;99.90;;;;;;5040927;28;20049;-79
2023/08/16 05:18:17;;;;;;;20.70;12.43;;;18.40;99.90;;;;;;5031915;28;20046;-79
2023/08/16 05:20:43;;;;;;;20.23;11.70;;;18.50;99.90;;;;;;5023051;28;20050;-79
2023/08/16 05:23:09;;;;;;;18.50;12.65;;;18.60;90.80;;;;;;5039561;28;20033;-79
2023/08/16 05:25:38;;;;;;;19.92;12.85;;;18.60;65.90;;;;;;5034926;28;20443;-79
2023/08/16 05:28:05;;;;;;;20.02;13.05;;;18.70;41.90;;;;;;5025440;28;20655;-79
2023/08/16 05:30:31;;;;;;;17.48;12.30;;;18.60;25.20;;;;;;5031770;28;20039;-80
2023/08/16 05:32:57;;;;;;;18.48;13.45;;;18.60;22.00;;;;;;5034659;28;20036;-80
2023/08/16 05:35:23;;;;;;;20.05;12.30;;;18.60;31.90;;;;;;5028359;28;20033;-81
2023/08/16 05:37:54;;;;;;;20.80;12.88;;;18.50;48.50;;;;;;5020504;28;20041;-80
2023/08/16 05:40:20;;;;;;;;;;;18.50;61.40;;;;;;5029584;28;20033;-79
2023/08/16 05:42:49;;;;;;;21.25;14.07;;;18.60;70.90;;;;;;5024379;28;20004;-76
2023/08/16 05:45:15;;;;;;;19.92;12.27;;;18.60;79.10;;;;;;5027203;28;20038;-79
2023/08/16 05:47:42;;;;;;;21.90;13.48;;;18.60;80.10;;;;;;5028574;28;20122;-79
2023/08/16 05:50:08;;;;;;;19.63;13.02;;;18.70;83.50;;;;;;5037116;28;20034;-81
2023/08/16 05:52:34;;;;;;;20.25;12.40;;;18.70;78.70;;;;;;5027719;28;20024;-80
2023/08/16 05:55:00;;;;;;;18.25;12.80;;;18.80;75.90;;;;;;5022075;28;20048;-80
2023/08/16 05:57:26;;;;;;;20.25;12.70;;;18.80;67.80;;;;;;5025422;28;20028;-81
2023/08/16 05:59:52;;;;;;;17.25;12.85;;;18.90;62.80;;;;;;5029884;28;20045;-80
2023/08/16 06:02:25;;;;;;;24.08;14.63;;;18.90;34.80;;;;;;5021282;28;20046;-81
2023/08/16 06:04:52;;;;;;;21.30;13.50;;;19.00;28.10;;;;;;5021667;28;20096;-80
2023/08/16 06:07:18;;;;;;;21.25;13.50;;;19.10;23.00;;;;;;5027421;28;20056;-81
2023/08/16 06:09:45;;;;;;;20.30;13.38;;;19.20;9.80;;;;;;5029995;28;20038;-80
2023/08/16 06:12:12;;;;;;;17.23;12.70;;;19.30;1.00;;;;;;5029539;28;20038;-81
2023/08/16 06:14:39;;;;;;;14.68;11.15;;;19.30;1.00;;;;;;5033986;28;20060;-80
2023/08/16 06:17:05;;;;;;;14.07;11.00;;;19.50;1.00;;;;;;5029249;28;20033;-82
2023/08/16 06:19:31;;;;;;;17.35;12.95;;;19.60;1.00;;;;;;5022571;28;20037;-81
2023/08/16 06:21:59;;;;;;;13.50;10.75;;;19.80;1.00;;;;;;5019901;28;20350;-81
2023/08/16 06:24:25;;;;;;;15.90;10.77;;;19.90;1.00;;;;;;5026742;28;20056;-81
2023/08/16 06:26:52;;;;;;;13.27;9.32;;;20.00;1.00;;;;;;5023876;28;20249;-79
2023/08/16 06:29:18;;;;;;;13.07;10.05;;;20.00;1.00;;;;;;5028699;28;20030;-80
2023/08/16 06:31:44;;;;;;;13.20;10.35;;;20.10;1.00;;;;;;5031719;28;20047;-85
2023/08/16 06:34:11;;;;;;;17.92;11.65;;;20.20;99.90;;;;;;5032641;28;20026;-83
2023/08/16 06:36:37;;;;;;;14.63;10.48;;;20.30;99.90;;;;;;5025014;28;20398;-80
2023/08/16 06:39:03;;;;;;;13.00;9.82;;;20.90;99.90;;;;;;5020692;28;20034;-83
2023/08/16 06:41:29;;;;;;;12.88;8.18;;;21.50;99.90;;;;;;5026266;28;20037;-85
2023/08/16 06:43:57;;;;;;;9.85;8.40;;;21.90;99.90;;;;;;5029006;28;20398;-85
2023/08/16 06:46:23;;;;;;;10.48;7.80;;;22.00;99.90;;;;;;5021465;28;20029;-85
2023/08/16 06:48:50;;;;;;;8.10;7.03;;;22.20;99.90;;;;;;5012917;28;20048;-85
2023/08/16 06:51:16;;;;;;;8.00;7.03;;;22.60;99.90;;;;;;5043404;28;20044;-86
2023/08/16 06:53:44;;;;;;;9.40;7.18;;;23.50;94.10;;;;;;5037546;28;20474;-85
2023/08/16 06:56:10;;;;;;;8.00;6.65;;;23.90;1.00;;;;;;5030996;28;20044;-83
2023/08/16 06:58:37;;;;;;;7.30;6.40;;;24.00;1.00;;;;;;5034245;28;20486;-83
2023/08/16 07:01:03;;;;;;;9.45;5.88;;;23.90;1.00;;;;;;5022624;28;20061;-83
2023/08/16 07:03:29;;;;;;;7.72;5.80;;;24.40;1.00;;;;;;5028819;28;20043;-88
2023/08/16 07:05:56;;;;;;;7.78;5.75;;;25.30;99.90;;;;;;5029257;28;20044;-85
2023/08/16 07:08:22;;;;;;;8.18;5.65;;;25.40;99.90;;;;;;5031031;28;20041;-85
2023/08/16 07:10:48;;;;;;;9.25;6.10;;;24.90;99.90;;;;;;5030519;28;20036;-81
2023/08/16 07:13:14;;;;;;;6.35;5.07;;;24.80;99.90;;;;;;5032091;28;20576;-85
2023/08/16 07:15:41;;;;;;;5.63;4.65;;;24.60;99.90;;;;;;5041919;28;20041;-83
2023/08/16 07:18:07;;;;;;;4.80;3.92;;;24.20;1.00;;;;;;5034598;28;20725;-82
2023/08/16 07:20:33;;;;;;;4.75;3.63;;;24.10;1.00;;;;;;5028457;28;20037;-80
2023/08/16 07:23:00;;;;;;;5.65;3.45;;;24.30;1.00;;;;;;5031130;28;20378;-82
2023/08/16 07:25:27;;;;;;;5.15;3.80;;;24.60;1.00;;;;;;5030516;28;20034;-84
2023/08/16 07:27:53;;;;;;;5.05;3.35;;;25.90;99.90;;;;;;5027166;28;20026;-85
2023/08/16 07:30:19;;;;;;;5.22;3.88;;;26.50;99.90;;;;;;5017545;28;20391;-87
2023/08/16 07:32:45;;;;;;;4.18;2.70;;;26.60;99.90;;;;;;5033808;28;20048;-86
2023/08/16 07:35:11;;;;;;;4.22;3.13;;;26.70;97.00;;;;;;5039231;28;20366;-86
2023/08/16 07:37:37;;;;;;;3.58;2.65;;;27.10;47.60;;;;;;5035526;28;20077;-85
2023/08/16 07:40:05;;;;;;;5.38;3.70;;;27.30;40.80;;;;;;5034370;28;20040;-82
2023/08/16 07:42:31;;;;;;;6.45;3.78;;;26.40;99.90;;;;;;5045871;28;20029;-86
2023/08/16 07:44:58;;;;;;;5.45;3.78;;;26.00;99.90;;;;;;5037594;28;20045;-84
2023/08/16 07:47:27;;;;;;;5.30;3.47;;;25.30;99.90;;;;;;5026916;28;20026;-85
2023/08/16 07:49:54;;;;;;;7.60;5.40;;;25.10;99.90;;;;;;5033066;28;20029;-85
2023/08/16 07:52:21;;;;;;;8.27;4.38;;;25.30;99.90;;;;;;5029568;28;20041;-85
2023/08/16 07:54:47;;;;;;;7.57;4.72;;;25.50;99.90;;;;;;5028484;28;20507;-85
2023/08/16 07:57:13;;;;;;;5.65;4.30;;;25.60;99.90;;;;;;5035716;28;20462;-85
2023/08/16 07:59:40;;;;;;;9.40;4.57;;;25.20;99.90;;;;;;5037334;28;20048;-84
2023/08/16 08:02:06;;;;;;;5.47;4.35;;;25.50;99.90;;;;;;5032065;28;20049;-84
2023/08/16 08:04:33;;;;;;;6.10;4.05;;;25.90;99.90;;;;;;5024200;28;20037;-85
2023/08/16 08:07:00;;;;;;;6.35;4.85;;;26.00;99.90;;;;;;5033204;28;20048;-86
2023/08/16 08:09:26;;;;;;;8.70;4.80;;;27.10;90.60;;;;;;5026731;28;20483;-87
2023/08/16 08:11:52;;;;;;;5.97;3.85;;;27.60;1.00;;;;;;5022656;28;20392;-86
2023/08/16 08:14:18;;;;;;;9.95;4.45;;;27.70;1.00;;;;;;5021643;28;20054;-85
2023/08/16 08:16:44;;;;;;;6.70;4.75;;;27.20;1.00;;;;;;5033378;28;20037;-83
2023/08/16 08:19:11;;;;;;;5.88;3.97;;;25.90;98.10;;;;;;5033978;28;20033;-84
2023/08/16 08:21:37;;;;;;;7.97;4.47;;;26.20;99.90;;;;;;5032479;28;20040;-86
2023/08/16 08:24:04;;;;;;;3.88;3.40;;;26.60;54.20;;;;;;5034052;28;20037;-85
2023/08/16 08:26:30;;;;;;;7.10;4.00;;;27.30;10.50;;;;;;5033091;28;20037;-88
2023/08/16 08:28:56;;;;;;;7.30;4.45;;;27.60;1.00;;;;;;5022686;28;20037;-83
2023/08/16 08:31:25;;;;;;;7.95;4.75;;;28.10;1.00;;;;;;5026586;28;20471;-87
2023/08/16 08:33:51;;;;;;;5.85;4.60;;;28.60;1.00;;;;;;5029689;28;20038;-81
2023/08/16 08:36:18;;;;;;;9.65;5.35;;;28.20;1.00;;;;;;5031984;28;20056;-87
2023/08/16 08:38:44;;;;;;;7.63;5.35;;;28.40;1.00;;;;;;5026954;28;20038;-84
2023/08/16 08:41:10;;;;;;;10.25;7.38;;;28.40;1.00;;;;;;5039576;28;20505;-85
2023/08/16 08:43:37;;;;;;;13.05;6.85;;;27.10;1.00;;;;;;5035811;28;20100;-83
2023/08/16 08:46:05;;;;;;;10.63;7.28;;;26.10;38.20;;;;;;5028071;28;20033;-82
2023/08/16 08:48:32;;;;;;;10.73;6.03;;;25.70;49.90;;;;;;5031117;28;20029;-86
2023/08/16 08:51:02;;;;;;;7.28;4.57;;;26.00;69.30;;;;;;5033115;28;20044;-85
2023/08/16 08:53:28;;;;;;;11.23;5.15;;;26.60;1.00;;;;;;5022730;28;20029;-81
2023/08/16 08:55:56;;;;;;;7.13;4.18;;;26.80;1.00;;;;;;5018580;28;20047;-85
2023/08/16 08:58:23;;;;;;;6.57;4.43;;;26.30;10.70;;;;;;5024456;28;20332;-84
2023/08/16 09:00:49;;;;;;;10.93;4.68;;;26.30;1.00;;;;;;5035127;28;20050;-85
2023/08/16 09:03:18;;;;;;;6.78;4.22;;;26.00;19.60;;;;;;5035207;28;20045;-85
2023/08/16 09:05:45;;;;;;;7.30;4.40;;;26.00;32.30;;;;;;5028637;28;20037;-86
2023/08/16 09:08:13;;;;;;;6.47;4.18;;;26.00;28.40;;;;;;5035912;28;20033;-86
2023/08/16 09:10:43;;;;;;;11.18;4.05;;;26.70;1.00;;;;;;5027874;28;20045;-87
2023/08/16 09:13:12;;;;;;;8.45;4.00;;;27.40;1.00;;;;;;5022677;28;20463;-87
2023/08/16 09:15:39;;;;;;;6.90;4.30;;;27.90;1.00;;;;;;5029925;28;20405;-83
2023/08/16 09:18:10;;;;;;;8.55;5.22;;;28.30;1.00;;;;;;5029827;28;20387;-86
2023/08/16 09:20:37;;;;;;;5.93;4.00;;;27.40;1.00;;;;;;5027957;28;20030;-86
2023/08/16 09:23:04;;;;;;;7.43;4.35;;;27.00;1.00;;;;;;5028335;28;20382;-87
2023/08/16 09:25:30;;;;;;;9.75;4.95;;;27.50;1.00;;;;;;5035822;28;20025;-87
2023/08/16 09:27:57;;;;;;;5.60;3.75;;;28.10;1.00;;;;;;5028389;28;20033;-85
2023/08/16 09:30:29;;;;;;;7.70;3.95;;;27.80;1.00;;;;;;5023507;28;20711;-87
2023/08/16 09:32:56;;;;;;;7.75;4.65;;;27.40;1.00;;;;;;5033905;28;20045;-81
2023/08/16 09:35:33;;;;;;;8.55;4.82;;;27.00;1.00;;;;;;5029456;28;20478;-87
2023/08/16 09:38:00;;;;;;;6.88;4.45;;;26.40;19.20;;;;;;5025322;28;20475;-87
2023/08/16 09:40:27;;;;;;;7.80;4.15;;;26.60;27.90;;;;;;5023811;28;20021;-86
2023/08/16 09:43:02;;;;;;;8.80;5.15;;;26.80;1.00;;;;;;5022514;28;20033;-78
2023/08/16 09:45:32;;;;;;;6.30;4.38;;;26.80;16.40;;;;;;5035804;28;20367;-86
2023/08/16 09:48:04;;;;;;;5.60;3.80;;;27.10;1.00;;;;;;5028457;28;20382;-87
2023/08/16 09:50:35;;;;;;;5.95;4.00;;;27.30;1.00;;;;;;5035858;28;20033;-83
2023/08/16 09:53:04;;;;;;;5.75;3.95;;;27.20;1.00;;;;;;5028958;28;20038;-85
2023/08/16 09:55:32;;;;;;;4.72;3.35;;;27.30;1.00;;;;;;5020961;28;20513;-85
2023/08/16 09:58:00;;;;;;;6.75;4.15;;;27.90;1.00;;;;;;5032894;28;20051;-86
2023/08/16 10:00:28;;;;;;;5.05;3.55;;;28.10;1.00;;;;;;5025224;28;20041;-82
2023/08/16 10:02:56;;;;;;;5.45;3.63;;;27.80;1.00;;;;;;5021331;28;20033;-78
2023/08/16 10:05:23;;;;;;;5.72;3.55;;;27.60;1.00;;;;;;5017213;28;20025;-83
2023/08/16 10:07:50;;;;;;;4.70;3.45;;;27.30;1.00;;;;;;5040654;28;20033;-86
2023/08/16 10:10:17;;;;;;;5.70;3.00;;;26.80;4.60;;;;;;5043385;28;20034;-86
2023/08/16 10:12:45;;;;;;;6.78;3.30;;;26.80;12.60;;;;;;5044732;28;20148;-84
2023/08/16 10:15:12;;;;;;;5.80;3.75;;;26.70;13.40;;;;;;5032367;28;20053;-85
2023/08/16 10:17:39;;;;;;;5.03;3.40;;;26.30;59.90;;;;;;5046912;28;20035;-85
2023/08/16 10:20:32;;;;;;;4.80;3.45;;;26.40;61.30;;;;;;5030349;28;20046;-85
2023/08/16 10:23:01;;;;;;;4.60;4.07;;;26.30;56.70;;;;;;5018376;28;20049;-85
2023/08/16 10:25:44;;;;;;;4.95;3.85;;;26.10;60.10;;;;;;5027942;28;20490;-84
2023/08/16 10:28:11;;;;;;;4.45;2.78;;;26.00;99.90;;;;;;5031729;28;20512;-84
2023/08/16 10:30:39;;;;;;;9.25;4.20;;;26.10;83.20;;;;;;5024201;28;20030;-85
2023/08/16 10:33:10;;;;;;;8.18;3.97;;;26.20;58.60;;;;;;5038447;28;20027;-86
2023/08/16 10:35:39;;;;;;;4.35;3.00;;;26.30;40.40;;;;;;5031294;28;20037;-81
2023/08/16 10:38:05;;;;;;;7.85;3.33;;;26.60;6.60;;;;;;5025669;28;20053;-85
2023/08/16 10:40:32;;;;;;;5.68;3.17;;;26.70;3.90;;;;;;5027098;28;20040;-88
2023/08/16 10:43:08;;;;;;;5.30;3.60;;;26.70;1.00;;;;;;5027725;28;20038;-85
2023/08/16 10:45:35;;;;;;;4.00;3.40;;;26.60;5.90;;;;;;5021664;28;20034;-85
2023/08/16 10:48:14;;;;;;;4.07;3.00;;;26.50;5.00;;;;;;5024079;28;20498;-85
2023/08/16 10:50:41;;;;;;;4.47;2.67;;;26.70;1.00;;;;;;5034022;28;20211;-82
2023/08/16 10:53:08;;;;;;;4.03;3.13;;;26.80;1.00;;;;;;5035814;28;20040;-79
2023/08/16 10:55:34;;;;;;;7.40;3.03;;;26.80;33.10;;;;;;5027183;28;20038;-86
2023/08/16 10:58:01;;;;;;;4.95;2.75;;;26.90;1.00;;;;;;5032209;28;20040;-83
2023/08/16 11:00:35;;;;;;;5.15;3.55;;;26.90;2.60;;;;;;5026336;28;20442;-86
2023/08/16 11:03:04;;;;;;;5.38;3.30;;;27.00;1.00;;;;;;5027812;28;20046;-84
2023/08/16 11:05:33;;;;;;;5.80;4.03;;;27.10;1.00;;;;;;5019377;28;20041;-86
2023/08/16 11:08:09;;;;;;;4.55;2.83;;;27.10;2.00;;;;;;5029047;28;20482;-83
2023/08/16 11:10:37;;;;;;;4.93;2.90;;;27.20;1.00;;;;;;5024073;28;20045;-84
2023/08/16 11:13:10;;;;;;;4.30;2.78;;;26.80;1.00;;;;;;5027127;28;20034;-86
2023/08/16 11:15:38;;;;;;;4.13;2.85;;;26.90;1.00;;;;;;5031094;28;20125;-87
2023/08/16 11:18:05;;;;;;;3.08;2.50;;;27.00;1.00;;;;;;5035422;28;20056;-86
2023/08/16 11:20:31;;;;;;;3.97;2.00;;;27.10;1.00;;;;;;5023885;28;20354;-86
2023/08/16 11:22:58;;;;;;;4.72;3.05;;;27.50;1.00;;;;;;5037265;28;20475;-86
2023/08/16 11:25:34;;;;;;;3.25;2.53;;;27.70;1.00;;;;;;5021004;28;20046;-86
2023/08/16 11:28:03;;;;;;;4.53;2.83;;;27.70;1.00;;;;;;5010002;28;20487;-85
2023/08/16 11:30:31;;;;;;;5.53;2.88;;;27.30;1.00;;;;;;5009911;28;20038;-81
2023/08/16 11:33:00;;;;;;;4.30;2.65;;;27.30;1.00;;;;;;5032060;28;20033;-88
2023/08/16 11:35:26;;;;;;;6.10;3.20;;;27.20;1.00;;;;;;5036207;28;20466;-85
2023/08/16 11:37:53;;;;;;;4.47;3.17;;;27.40;3.80;;;;;;5034667;28;20041;-84
2023/08/16 11:40:22;;;;;;;5.47;3.35;;;27.00;10.50;;;;;;5031985;28;20038;-87
2023/08/16 11:42:50;;;;;;;4.70;2.60;;;26.80;12.60;;;;;;5029182;28;20386;-82
2023/08/16 11:45:18;;;;;;;3.08;2.75;;;27.20;1.00;;;;;;5031906;28;20037;-86
2023/08/16 11:47:48;;;;;;;4.55;2.38;;;27.10;1.00;;;;;;5026972;28;20040;-82
2023/08/16 11:50:14;;;;;;;7.20;2.83;;;27.20;1.00;;;;;;5035654;28;20033;-84
2023/08/16 11:52:40;;;;;;;4.07;2.88;;;27.10;1.00;;;;;;5031100;28;20034;-86
2023/08/16 11:55:08;;;;;;;8.98;4.22;;;27.40;1.00;;;;;;5057974;28;20047;-84
2023/08/16 11:57:44;;;;;;;3.25;2.25;;;27.80;1.00;;;;;;5061741;28;20041;-86
2023/08/16 12:00:14;;;;;;;2.17;1.67;;;27.90;1.00;;;;;;5036900;28;20059;-85
2023/08/16 12:02:46;;;;;;;4.90;2.55;;;28.00;1.00;;;;;;5035052;28;20045;-88
2023/08/16 12:05:14;;;;;;;3.45;2.20;;;28.20;1.00;;;;;;5026376;28;20046;-82
2023/08/16 12:07:53;;;;;;;4.80;2.40;;;28.20;1.00;;;;;;5039135;28;20149;-87
2023/08/16 12:10:24;;;;;;;2.72;1.90;;;28.10;1.00;;;;;;5023801;28;20034;-86
2023/08/16 12:12:52;;;;;;;5.68;3.53;;;28.30;1.00;;;;;;5022914;28;20057;-88
2023/08/16 12:15:23;;;;;;;4.30;2.53;;;28.10;1.00;;;;;;5023948;28;20046;-87
2023/08/16 12:17:51;;;;;;;2.72;1.90;;;27.90;1.00;;;;;;5037146;28;20037;-87
2023/08/16 12:20:17;;;;;;;2.72;1.83;;;28.10;1.00;;;;;;5034317;28;20048;-87
2023/08/16 12:22:46;;;;;;;2.50;1.90;;;28.60;1.00;;;;;;5030372;28;20028;-86
2023/08/16 12:25:12;;;;;;;3.08;1.75;;;28.70;1.00;;;;;;5034266;28;20044;-88
2023/08/16 12:27:39;;;;;;;3.30;2.30;;;28.40;1.00;;;;;;5027969;28;20479;-87
2023/08/16 12:30:06;;;;;;;3.95;2.03;;;28.30;1.00;;;;;;5023387;28;20046;-86
2023/08/16 12:32:32;;;;;;;5.68;2.15;;;28.50;1.00;;;;;;5027065;28;20041;-88
2023/08/16 12:34:58;;;;;;;3.90;1.92;;;28.70;1.00;;;;;;5028620;28;20041;-87
2023/08/16 12:37:24;;;;;;;5.07;2.17;;;29.00;1.00;;;;;;5017705;28;20057;-84
2023/08/16 12:39:50;;;;;;;6.03;2.92;;;29.00;1.00;;;;;;5037637;28;20038;-85
2023/08/16 12:42:16;;;;;;;5.88;2.38;;;28.80;1.00;;;;;;5049210;28;20462;-84
2023/08/16 12:44:43;;;;;;;3.60;1.95;;;28.40;1.00;;;;;;5040266;28;20053;-85
2023/08/16 12:47:10;;;;;;;4.75;2.17;;;28.30;1.00;;;;;;5032891;28;20044;-84
2023/08/16 12:49:36;;;;;;;3.20;1.65;;;28.50;1.00;;;;;;5034914;28;20033;-84